createdAt,value
2023-04-17T00:01:20.685Z,945.22
2023-04-17T00:03:47.262Z,945.16
2023-04-17T00:06:13.475Z,945.18
2023-04-17T00:08:39.885Z,945.21
2023-04-17T00:11:08.523Z,945.13
2023-04-17T00:13:32.740Z,945.15
2023-04-17T00:15:59.107Z,945.13
2023-04-17T00:18:25.541Z,945.10
2023-04-17T00:20:51.901Z,945.10
2023-04-17T00:23:18.319Z,945.11
2023-04-17T00:25:44.773Z,945.13
2023-04-17T00:28:11.143Z,945.06
2023-04-17T00:30:37.565Z,945.03
2023-04-17T00:33:03.960Z,945.08
2023-04-17T00:35:30.315Z,945.10
2023-04-17T00:37:56.738Z,945.07
2023-04-17T00:40:23.150Z,945.09
2023-04-17T00:42:49.587Z,945.02
2023-04-17T00:45:15.998Z,945.00
2023-04-17T00:47:42.456Z,945.06
2023-04-17T00:50:08.896Z,945.03
2023-04-17T00:52:35.255Z,945.02
2023-04-17T00:55:01.708Z,945.01
2023-04-17T00:57:28.109Z,944.96
2023-04-17T00:59:54.498Z,944.97
2023-04-17T01:02:20.941Z,944.95
2023-04-17T01:04:47.256Z,944.91
2023-04-17T01:07:13.634Z,944.93
2023-04-17T01:09:40.031Z,944.97
2023-04-17T01:12:06.392Z,944.90
2023-04-17T01:14:32.778Z,944.96
2023-04-17T01:16:59.225Z,944.97
2023-04-17T01:19:25.620Z,944.94
2023-04-17T01:21:52.025Z,944.83
2023-04-17T01:24:18.450Z,944.87
2023-04-17T01:26:44.816Z,944.86
2023-04-17T01:29:11.335Z,944.89
2023-04-17T01:31:37.615Z,945.00
2023-04-17T01:34:03.987Z,944.94
2023-04-17T01:36:30.387Z,944.86
2023-04-17T01:38:56.748Z,944.92
2023-04-17T01:41:23.159Z,944.88
2023-04-17T01:43:49.563Z,944.85
2023-04-17T01:46:16.004Z,944.82
2023-04-17T01:48:42.324Z,944.83
2023-04-17T01:51:08.754Z,944.78
2023-04-17T01:53:35.153Z,944.81
2023-04-17T01:56:01.557Z,944.89
2023-04-17T01:58:27.974Z,944.85
2023-04-17T02:00:54.355Z,944.77
2023-04-17T02:03:20.917Z,944.73
2023-04-17T02:05:47.149Z,944.78
2023-04-17T02:08:13.565Z,944.73
2023-04-17T02:10:39.990Z,944.74
2023-04-17T02:13:06.360Z,944.71
2023-04-17T02:15:32.837Z,944.73
2023-04-17T02:17:59.231Z,944.69
2023-04-17T02:20:25.604Z,944.66
2023-04-17T02:22:52.025Z,944.64
2023-04-17T02:25:18.428Z,944.65
2023-04-17T02:27:44.839Z,944.61
2023-04-17T02:30:11.239Z,944.68
2023-04-17T02:32:37.729Z,944.72
2023-04-17T02:35:04.042Z,944.61
2023-04-17T02:37:30.432Z,944.70
2023-04-17T02:39:56.803Z,944.67
2023-04-17T02:42:23.192Z,944.72
2023-04-17T02:44:49.570Z,944.73
2023-04-17T02:47:15.990Z,944.74
2023-04-17T02:49:42.419Z,944.73
2023-04-17T02:52:08.826Z,944.77
2023-04-17T02:54:35.235Z,944.72
2023-04-17T02:57:01.670Z,944.72
2023-04-17T02:59:28.035Z,944.71
2023-04-17T03:01:54.535Z,944.77
2023-04-17T03:04:20.988Z,944.76
2023-04-17T03:06:47.325Z,944.81
2023-04-17T03:09:13.884Z,944.78
2023-04-17T03:11:40.189Z,944.73
2023-04-17T03:14:06.551Z,944.81
2023-04-17T03:16:32.992Z,944.79
2023-04-17T03:18:59.339Z,944.76
2023-04-17T03:21:25.772Z,944.78
2023-04-17T03:23:52.132Z,944.79
2023-04-17T03:26:18.603Z,944.82
2023-04-17T03:28:44.958Z,944.85
2023-04-17T03:31:11.381Z,944.83
2023-04-17T03:33:37.740Z,944.78
2023-04-17T03:36:04.116Z,944.81
2023-04-17T03:38:30.547Z,944.83
2023-04-17T03:40:56.955Z,944.76
2023-04-17T03:43:23.334Z,944.82
2023-04-17T03:45:49.813Z,944.85
2023-04-17T03:48:16.169Z,944.87
2023-04-17T03:50:42.577Z,944.87
2023-04-17T03:53:09.023Z,944.95
2023-04-17T03:55:35.410Z,944.93
2023-04-17T03:58:01.819Z,944.96
2023-04-17T04:00:28.234Z,944.88
2023-04-17T04:02:54.733Z,944.95
2023-04-17T04:05:21.076Z,944.93
2023-04-17T04:07:47.421Z,944.90
2023-04-17T04:10:13.823Z,944.90
2023-04-17T04:12:40.197Z,944.82
2023-04-17T04:15:06.572Z,944.91
2023-04-17T04:17:32.956Z,944.88
2023-04-17T04:19:59.379Z,944.94
2023-04-17T04:22:25.764Z,944.90
2023-04-17T04:24:52.181Z,944.96
2023-04-17T04:27:18.576Z,944.98
2023-04-17T04:29:44.941Z,944.95
2023-04-17T04:32:11.368Z,944.99
2023-04-17T04:34:37.847Z,944.96
2023-04-17T04:37:04.207Z,944.98
2023-04-17T04:39:30.633Z,944.98
2023-04-17T04:41:57.052Z,944.94
2023-04-17T04:44:23.486Z,944.98
2023-04-17T04:46:50.067Z,945.00
2023-04-17T04:49:16.362Z,945.00
2023-04-17T04:51:42.773Z,945.00
2023-04-17T04:54:09.140Z,945.08
2023-04-17T04:56:35.558Z,945.03
2023-04-17T04:59:01.946Z,945.05
2023-04-17T05:01:28.425Z,945.01
2023-04-17T05:03:54.979Z,945.06
2023-04-17T05:06:21.322Z,945.05
2023-04-17T05:08:47.731Z,945.08
2023-04-17T05:11:14.101Z,944.99
2023-04-17T05:13:40.470Z,945.11
2023-04-17T05:16:06.917Z,945.11
2023-04-17T05:18:33.254Z,945.08
2023-04-17T05:20:59.640Z,945.05
2023-04-17T05:23:26.053Z,945.09
2023-04-17T05:25:52.469Z,945.11
2023-04-17T05:28:18.848Z,945.15
2023-04-17T05:30:45.304Z,945.11
2023-04-17T05:33:11.767Z,945.20
2023-04-17T05:35:38.107Z,945.10
2023-04-17T05:38:04.586Z,945.15
2023-04-17T05:40:31.007Z,945.15
2023-04-17T05:42:57.384Z,945.15
2023-04-17T05:45:25.517Z,945.18
2023-04-17T05:47:50.431Z,945.20
2023-04-17T05:50:16.807Z,945.20
2023-04-17T05:52:43.235Z,945.22
2023-04-17T05:55:09.647Z,945.25
2023-04-17T05:57:36.090Z,945.27
2023-04-17T06:00:02.467Z,945.27
2023-04-17T06:02:28.995Z,945.27
2023-04-17T06:04:55.447Z,945.22
2023-04-17T06:07:21.762Z,945.30
2023-04-17T06:09:48.134Z,945.35
2023-04-17T06:12:14.549Z,945.37
2023-04-17T06:14:40.928Z,945.37
2023-04-17T06:17:07.428Z,945.37
2023-04-17T06:19:33.752Z,945.41
2023-04-17T06:22:00.190Z,945.42
2023-04-17T06:24:26.611Z,945.43
2023-04-17T06:26:59.377Z,945.50
2023-04-17T06:29:26.957Z,945.56
2023-04-17T06:31:54.637Z,945.48
2023-04-17T06:34:21.064Z,945.53
2023-04-17T06:36:47.422Z,945.58
2023-04-17T06:39:16.471Z,945.55
2023-04-17T06:41:45.221Z,945.54
2023-04-17T06:44:11.605Z,945.59
2023-04-17T06:46:38.111Z,945.59
2023-04-17T06:49:04.496Z,945.55
2023-04-17T06:51:31.062Z,945.61
2023-04-17T06:53:57.526Z,945.61
2023-04-17T06:56:24.064Z,945.59
2023-04-17T06:58:50.470Z,945.54
2023-04-17T07:01:16.868Z,945.54
2023-04-17T07:03:43.616Z,945.54
2023-04-17T07:06:09.815Z,945.54
2023-04-17T07:08:36.172Z,945.54
2023-04-17T07:11:02.554Z,945.54
2023-04-17T07:13:28.960Z,945.49
2023-04-17T07:15:55.466Z,945.57
2023-04-17T07:18:21.874Z,945.64
2023-04-17T07:20:48.307Z,945.69
2023-04-17T07:23:14.743Z,945.64
2023-04-17T07:25:41.091Z,945.75
2023-04-17T07:28:07.612Z,945.62
2023-04-17T07:30:33.987Z,945.74
2023-04-17T07:33:00.402Z,945.64
2023-04-17T07:35:26.865Z,945.71
2023-04-17T07:37:53.283Z,945.64
2023-04-17T07:40:19.692Z,945.68
2023-04-17T07:42:46.184Z,945.64
2023-04-17T07:45:12.561Z,945.66
2023-04-17T07:47:41.157Z,945.68
2023-04-17T07:50:07.569Z,945.71
2023-04-17T07:52:33.966Z,945.75
2023-04-17T07:55:00.342Z,945.71
2023-04-17T07:57:26.838Z,945.72
2023-04-17T07:59:53.225Z,945.83
2023-04-17T08:02:20.691Z,945.72
2023-04-17T08:04:46.126Z,945.75
2023-04-17T08:07:12.392Z,945.82
2023-04-17T08:09:39.112Z,945.73
2023-04-17T08:12:05.539Z,945.76
2023-04-17T08:14:32.261Z,945.77
2023-04-17T08:16:58.700Z,945.74
2023-04-17T08:19:25.083Z,945.67
2023-04-17T08:21:51.505Z,945.70
2023-04-17T08:24:19.793Z,945.62
2023-04-17T08:26:44.362Z,945.66
2023-04-17T08:29:10.986Z,945.69
2023-04-17T08:31:37.175Z,945.70
2023-04-17T08:34:13.635Z,945.60
2023-04-17T08:36:32.927Z,945.72
2023-04-17T08:38:59.374Z,945.69
2023-04-17T08:41:25.742Z,945.70
2023-04-17T08:43:52.120Z,945.69
2023-04-17T08:46:18.685Z,945.69
2023-04-17T08:48:45.037Z,945.70
2023-04-17T08:51:11.470Z,945.74
2023-04-17T08:53:38.046Z,945.64
2023-04-17T08:56:06.255Z,945.70
2023-04-17T08:58:31.023Z,945.73
2023-04-17T09:00:57.468Z,945.71
2023-04-17T09:03:24.371Z,945.70
2023-04-17T09:05:50.491Z,945.64
2023-04-17T09:08:16.882Z,945.66
2023-04-17T09:10:43.349Z,945.69
2023-04-17T09:13:09.985Z,945.63
2023-04-17T09:15:36.517Z,945.64
2023-04-17T09:18:02.807Z,945.58
2023-04-17T09:20:29.400Z,945.65
2023-04-17T09:22:55.956Z,945.56
2023-04-17T09:25:22.367Z,945.51
2023-04-17T09:27:48.744Z,945.52
2023-04-17T09:30:15.237Z,945.53
2023-04-17T09:32:41.614Z,945.66
2023-04-17T09:35:07.958Z,945.78
2023-04-17T09:37:35.440Z,945.85
2023-04-17T09:40:01.889Z,945.83
2023-04-17T09:42:28.474Z,945.84
2023-04-17T09:44:54.839Z,945.79
2023-04-17T09:47:21.311Z,945.73
2023-04-17T09:49:49.830Z,945.64
2023-04-17T09:52:16.314Z,945.71
2023-04-17T09:54:42.711Z,945.72
2023-04-17T09:57:09.173Z,945.69
2023-04-17T09:59:35.813Z,945.62
2023-04-17T10:02:02.373Z,945.62
2023-04-17T10:04:28.638Z,945.57
2023-04-17T10:06:54.970Z,945.55
2023-04-17T10:09:21.816Z,945.57
2023-04-17T10:11:48.284Z,945.55
2023-04-17T10:14:14.970Z,945.55
2023-04-17T10:16:43.578Z,945.54
2023-04-17T10:19:09.860Z,945.56
2023-04-17T10:21:36.229Z,945.47
2023-04-17T10:24:03.108Z,945.36
2023-04-17T10:26:29.698Z,945.47
2023-04-17T10:28:56.156Z,945.50
2023-04-17T10:31:22.734Z,945.48
2023-04-17T10:33:49.090Z,945.41
2023-04-17T10:36:15.803Z,945.42
2023-04-17T10:38:43.345Z,945.42
2023-04-17T10:41:09.814Z,945.44
2023-04-17T10:43:36.546Z,945.36
2023-04-17T10:46:03.017Z,945.36
2023-04-17T10:48:29.631Z,945.37
2023-04-17T10:50:56.057Z,945.46
2023-04-17T10:53:22.560Z,945.45
2023-04-17T10:55:48.938Z,945.24
2023-04-17T10:58:15.560Z,945.46
2023-04-17T11:00:41.964Z,945.35
2023-04-17T11:03:08.655Z,945.41
2023-04-17T11:05:34.955Z,945.36
2023-04-17T11:08:01.697Z,945.35
2023-04-17T11:10:28.189Z,945.27
2023-04-17T11:12:54.660Z,945.31
2023-04-17T11:15:21.062Z,945.31
2023-04-17T11:17:47.648Z,945.35
2023-04-17T11:20:13.964Z,945.29
2023-04-17T11:22:40.476Z,945.23
2023-04-17T11:25:06.886Z,945.28
2023-04-17T11:27:33.234Z,945.35
2023-04-17T11:29:59.604Z,945.29
2023-04-17T11:32:26.008Z,945.36
2023-04-17T11:34:52.403Z,945.25
2023-04-17T11:37:18.969Z,945.32
2023-04-17T11:39:45.526Z,945.26
2023-04-17T11:42:11.911Z,945.33
2023-04-17T11:44:38.266Z,945.26
2023-04-17T11:47:04.652Z,945.20
2023-04-17T11:49:31.060Z,945.32
2023-04-17T11:52:00.561Z,945.08
2023-04-17T11:54:27.100Z,945.05
2023-04-17T11:56:53.803Z,945.07
2023-04-17T11:59:20.195Z,945.02
2023-04-17T12:01:46.617Z,945.03
2023-04-17T12:04:13.272Z,945.03
2023-04-17T12:06:39.522Z,945.04
2023-04-17T12:09:05.919Z,945.03
2023-04-17T12:11:32.281Z,945.05
2023-04-17T12:13:58.716Z,944.96
2023-04-17T12:16:25.177Z,944.96
2023-04-17T12:18:51.481Z,944.97
2023-04-17T12:21:17.958Z,944.98
2023-04-17T12:23:44.309Z,944.82
2023-04-17T12:26:10.711Z,944.91
2023-04-17T12:28:37.135Z,944.81
2023-04-17T12:31:03.527Z,944.93
2023-04-17T12:33:29.885Z,944.89
2023-04-17T12:35:56.287Z,944.86
2023-04-17T12:38:22.704Z,944.77
2023-04-17T12:40:49.116Z,944.91
2023-04-17T12:43:15.548Z,944.79
2023-04-17T12:45:42.536Z,944.87
2023-04-17T12:48:08.323Z,944.85
2023-04-17T12:50:36.899Z,944.79
2023-04-17T12:53:03.310Z,944.86
2023-04-17T12:55:29.714Z,944.90
2023-04-17T12:57:56.086Z,944.91
2023-04-17T13:00:22.458Z,944.87
2023-04-17T13:02:49.027Z,944.98
2023-04-17T13:05:15.293Z,944.89
2023-04-17T13:07:41.715Z,944.82
2023-04-17T13:10:08.135Z,944.88
2023-04-17T13:12:34.799Z,944.93
2023-04-17T13:15:01.219Z,944.84
2023-04-17T13:17:27.680Z,944.93
2023-04-17T13:19:54.122Z,944.88
2023-04-17T13:22:20.542Z,944.95
2023-04-17T13:24:47.051Z,944.85
2023-04-17T13:27:13.482Z,944.87
2023-04-17T13:29:40.007Z,944.77
2023-04-17T13:32:06.452Z,944.66
2023-04-17T13:34:32.821Z,944.71
2023-04-17T13:36:59.249Z,944.61
2023-04-17T13:39:25.765Z,944.64
2023-04-17T13:41:52.128Z,944.76
2023-04-17T13:44:18.556Z,944.70
2023-04-17T13:46:45.311Z,944.62
2023-04-17T13:49:11.938Z,944.58
2023-04-17T13:51:37.977Z,944.69
2023-04-17T13:54:04.413Z,944.59
2023-04-17T13:56:31.246Z,944.56
2023-04-17T13:58:57.684Z,944.56
2023-04-17T14:01:24.065Z,944.63
2023-04-17T14:03:50.579Z,944.57
2023-04-17T14:06:16.921Z,944.68
2023-04-17T14:08:44.361Z,944.60
2023-04-17T14:11:09.714Z,944.61
2023-04-17T14:13:36.142Z,944.62
2023-04-17T14:16:02.647Z,944.60
2023-04-17T14:18:29.048Z,944.74
2023-04-17T14:20:55.546Z,944.75
2023-04-17T14:23:21.986Z,944.63
2023-04-17T14:25:48.421Z,944.75
2023-04-17T14:28:14.905Z,944.75
2023-04-17T14:30:41.371Z,944.72
2023-04-17T14:33:07.760Z,944.69
2023-04-17T14:35:34.281Z,944.66
2023-04-17T14:38:00.807Z,944.67
2023-04-17T14:40:27.259Z,944.61
2023-04-17T14:42:54.832Z,944.65
2023-04-17T14:45:20.164Z,944.69
2023-04-17T14:47:46.658Z,944.62
2023-04-17T14:50:12.988Z,944.68
2023-04-17T14:52:40.376Z,944.71
2023-04-17T14:55:06.803Z,944.77
2023-04-17T14:57:33.651Z,944.65
2023-04-17T15:00:00.405Z,944.61
2023-04-17T15:02:26.712Z,944.69
2023-04-17T15:04:52.985Z,944.59
2023-04-17T15:07:21.683Z,944.67
2023-04-17T15:09:48.107Z,944.66
2023-04-17T15:12:16.933Z,944.64
2023-04-17T15:14:43.317Z,944.68
2023-04-17T15:17:09.757Z,944.65
2023-04-17T15:19:36.683Z,944.61
2023-04-17T15:22:03.181Z,944.78
2023-04-17T15:24:29.497Z,944.61
2023-04-17T15:26:55.908Z,944.66
2023-04-17T15:29:22.454Z,944.67
2023-04-17T15:31:48.915Z,944.62
2023-04-17T15:34:15.263Z,944.49
2023-04-17T15:36:41.688Z,944.62
2023-04-17T15:39:08.115Z,944.60
2023-04-17T15:41:34.467Z,944.56
2023-04-17T15:44:00.937Z,944.57
2023-04-17T15:46:27.408Z,944.58
2023-04-17T15:49:07.468Z,944.56
2023-04-17T15:51:20.660Z,944.65
2023-04-17T15:53:47.038Z,944.68
2023-04-17T15:56:13.426Z,944.66
2023-04-17T15:58:40.013Z,944.61
2023-04-17T16:01:06.462Z,944.72
2023-04-17T16:03:32.913Z,944.67
2023-04-17T16:05:59.364Z,944.66
2023-04-17T16:08:25.778Z,944.72
2023-04-17T16:10:52.185Z,944.67
2023-04-17T16:13:18.753Z,944.70
2023-04-17T16:15:45.242Z,944.72
2023-04-17T16:18:13.716Z,944.73
2023-04-17T16:20:40.092Z,944.74
2023-04-17T16:23:06.460Z,944.77
2023-04-17T16:25:33.393Z,944.83
2023-04-17T16:27:59.734Z,944.77
2023-04-17T16:30:26.168Z,944.75
2023-04-17T16:32:52.661Z,944.82
2023-04-17T16:35:18.964Z,944.82
2023-04-17T16:37:45.409Z,944.84
2023-04-17T16:40:11.791Z,944.81
2023-04-17T16:42:38.154Z,944.86
2023-04-17T16:45:04.526Z,944.82
2023-04-17T16:47:31.131Z,944.81
2023-04-17T16:49:57.455Z,944.88
2023-04-17T16:52:24.594Z,944.88
2023-04-17T16:54:51.067Z,944.94
2023-04-17T16:57:17.464Z,944.90
2023-04-17T16:59:43.840Z,944.96
2023-04-17T17:02:10.487Z,945.02
2023-04-17T17:04:36.850Z,945.05
2023-04-17T17:07:03.279Z,945.18
2023-04-17T17:09:29.653Z,945.08
2023-04-17T17:11:56.071Z,945.17
2023-04-17T17:14:22.566Z,945.31
2023-04-17T17:16:49.207Z,945.37
2023-04-17T17:19:15.568Z,945.36
2023-04-17T17:21:42.035Z,945.45
2023-04-17T17:24:08.397Z,945.45
2023-04-17T17:26:34.904Z,945.52
2023-04-17T17:29:01.325Z,945.51
2023-04-17T17:31:27.776Z,945.57
2023-04-17T17:33:54.119Z,945.67
2023-04-17T17:36:20.579Z,945.71
2023-04-17T17:38:46.887Z,945.67
2023-04-17T17:41:13.332Z,945.68
2023-04-17T17:43:39.748Z,945.74
2023-04-17T17:46:06.240Z,945.71
2023-04-17T17:48:32.594Z,945.79
2023-04-17T17:50:58.973Z,945.86
2023-04-17T17:53:27.129Z,945.88
2023-04-17T17:55:51.927Z,945.83
2023-04-17T17:58:18.416Z,945.86
2023-04-17T18:00:44.884Z,945.96
2023-04-17T18:03:11.740Z,945.98
2023-04-17T18:05:38.202Z,946.08
2023-04-17T18:08:04.607Z,946.11
2023-04-17T18:10:30.952Z,946.15
2023-04-17T18:12:57.491Z,946.19
2023-04-17T18:15:23.912Z,946.17
2023-04-17T18:17:50.323Z,946.17
2023-04-17T18:20:16.760Z,946.27
2023-04-17T18:22:43.116Z,946.18
2023-04-17T18:25:09.513Z,946.22
2023-04-17T18:27:35.918Z,946.23
2023-04-17T18:30:02.335Z,946.21
2023-04-17T18:32:28.816Z,946.22
2023-04-17T18:34:55.228Z,946.35
2023-04-17T18:37:21.590Z,946.37
2023-04-17T18:39:48.496Z,946.34
2023-04-17T18:42:14.914Z,946.35
2023-04-17T18:44:41.318Z,946.42
2023-04-17T18:47:07.808Z,946.41
2023-04-17T18:49:34.228Z,946.41
2023-04-17T18:52:02.420Z,946.39
2023-04-17T18:54:28.839Z,946.48
2023-04-17T18:56:55.223Z,946.49
2023-04-17T18:59:21.913Z,946.42
2023-04-17T19:01:48.269Z,946.45
2023-04-17T19:04:14.891Z,946.43
2023-04-17T19:06:41.158Z,946.47
2023-04-17T19:09:07.534Z,946.36
2023-04-17T19:11:33.897Z,946.38
2023-04-17T19:14:00.327Z,946.45
2023-04-17T19:16:26.783Z,946.44
2023-04-17T19:18:53.139Z,946.47
2023-04-17T19:21:19.878Z,946.45
2023-04-17T19:23:46.320Z,946.41
2023-04-17T19:26:12.739Z,946.43
2023-04-17T19:28:39.164Z,946.43
2023-04-17T19:31:08.021Z,946.41
2023-04-17T19:33:35.448Z,946.45
2023-04-17T19:36:01.810Z,946.44
2023-04-17T19:38:28.220Z,946.39
2023-04-17T19:40:54.615Z,946.39
2023-04-17T19:43:21.142Z,946.44
2023-04-17T19:45:47.506Z,946.47
2023-04-17T19:48:13.831Z,946.39
2023-04-17T19:50:40.274Z,946.42
2023-04-17T19:53:06.645Z,946.45
2023-04-17T19:55:33.068Z,946.47
2023-04-17T19:57:59.457Z,946.49
2023-04-17T20:00:25.828Z,946.52
2023-04-17T20:02:52.330Z,946.46
2023-04-17T20:05:18.657Z,946.50
2023-04-17T20:07:45.074Z,946.56
2023-04-17T20:10:11.456Z,946.50
2023-04-17T20:12:38.852Z,946.60
2023-04-17T20:15:05.226Z,946.49
2023-04-17T20:17:31.633Z,946.54
2023-04-17T20:19:57.986Z,946.54
2023-04-17T20:22:24.358Z,946.49
2023-04-17T20:24:50.830Z,946.46
2023-04-17T20:27:17.194Z,946.45
2023-04-17T20:29:43.526Z,946.55
2023-04-17T20:32:09.935Z,946.51
2023-04-17T20:34:36.333Z,946.53
2023-04-17T20:37:02.714Z,946.52
2023-04-17T20:39:29.102Z,946.50
2023-04-17T20:41:55.495Z,946.51
2023-04-17T20:44:21.999Z,946.57
2023-04-17T20:46:48.429Z,946.56
2023-04-17T20:49:14.860Z,946.61
2023-04-17T20:51:41.193Z,946.53
2023-04-17T20:54:07.556Z,946.59
2023-04-17T20:56:33.929Z,946.55
2023-04-17T20:59:00.362Z,946.56
2023-04-17T21:01:26.805Z,946.60
2023-04-17T21:03:53.291Z,946.52
2023-04-17T21:06:19.585Z,946.56
2023-04-17T21:08:45.976Z,946.58
2023-04-17T21:11:12.366Z,946.59
2023-04-17T21:13:39.006Z,946.52
2023-04-17T21:16:05.463Z,946.54
2023-04-17T21:18:33.321Z,946.53
2023-04-17T21:20:59.844Z,946.50
2023-04-17T21:23:26.216Z,946.49
2023-04-17T21:25:52.649Z,946.52
2023-04-17T21:28:19.043Z,946.51
2023-04-17T21:30:45.414Z,946.51
2023-04-17T21:33:11.831Z,946.52
2023-04-17T21:35:38.240Z,946.51
2023-04-17T21:38:04.652Z,946.50
2023-04-17T21:40:33.494Z,946.55
2023-04-17T21:42:58.496Z,946.52
2023-04-17T21:45:25.014Z,946.56
2023-04-17T21:47:51.394Z,946.52
2023-04-17T21:50:17.775Z,946.58
2023-04-17T21:52:44.325Z,946.58
2023-04-17T21:55:10.734Z,946.58
2023-04-17T21:57:37.098Z,946.59
2023-04-17T22:00:03.473Z,946.54
2023-04-17T22:02:29.908Z,946.50
2023-04-17T22:04:56.356Z,946.59
2023-04-17T22:07:23.000Z,946.49
2023-04-17T22:09:49.411Z,946.52
2023-04-17T22:12:15.817Z,946.47
2023-04-17T22:14:42.240Z,946.51
2023-04-17T22:17:08.629Z,946.58
2023-04-17T22:19:36.567Z,946.50
2023-04-17T22:22:02.981Z,946.57
2023-04-17T22:24:29.405Z,946.59
2023-04-17T22:26:55.757Z,946.56
2023-04-17T22:29:22.171Z,946.57
2023-04-17T22:31:48.536Z,946.58
2023-04-17T22:34:15.131Z,946.57
2023-04-17T22:36:41.399Z,946.52
2023-04-17T22:39:07.767Z,946.53
2023-04-17T22:41:34.134Z,946.52
2023-04-17T22:44:00.511Z,946.51
2023-04-17T22:46:26.911Z,946.46
2023-04-17T22:48:53.252Z,946.50
2023-04-17T22:51:19.613Z,946.52
2023-04-17T22:53:46.012Z,946.51
2023-04-17T22:56:12.422Z,946.50
2023-04-17T22:58:38.839Z,946.55
2023-04-17T23:01:05.252Z,946.60
2023-04-17T23:03:31.634Z,946.58
2023-04-17T23:05:58.009Z,946.58
2023-04-17T23:08:24.480Z,946.60
2023-04-17T23:10:50.886Z,946.56
2023-04-17T23:13:17.325Z,946.57
2023-04-17T23:15:43.808Z,946.51
2023-04-17T23:18:10.198Z,946.55
2023-04-17T23:20:36.528Z,946.48
2023-04-17T23:23:03.014Z,946.48
2023-04-17T23:25:29.406Z,946.55
2023-04-17T23:27:55.772Z,946.49
2023-04-17T23:30:22.188Z,946.49
2023-04-17T23:32:48.720Z,946.47
2023-04-17T23:35:15.051Z,946.47
2023-04-17T23:37:41.484Z,946.53
2023-04-17T23:40:07.915Z,946.51
2023-04-17T23:42:34.300Z,946.57
2023-04-17T23:45:00.657Z,946.59
2023-04-17T23:47:27.107Z,946.65
2023-04-17T23:49:55.725Z,946.64
2023-04-17T23:52:22.142Z,946.68
2023-04-17T23:54:49.627Z,946.65
2023-04-17T23:57:16.052Z,946.71
2023-04-17T23:59:42.412Z,946.70
